Dunav 8 — YP2566 — position and weather

sailwx.info

Track history (hours):
 
Tides and Currents Weather Stations Pressure Air Temp Water Temp Dewpoint Dewpoint Depression Visibility Wind Speed Wind Dir Waves Ship Positions

Dunav 8

Last reported at 2017-Oct-20 21:00 UTC. Time now 2017-Oct-20 21:17 UTC.
Position N 44°11' E 028°24'.

Length 67 m.

MMSI: 264162566.

Date/timePositionNaut miles runAvg speedWind from/ knotsBaromVisibWave heightAir tempDewpointWater temp
2017-Oct-20 21:00N 44°11' E 028°24'0 0.0
2017-Oct-20 20:29N 44°11' E 028°24'0 0.0
2017-Oct-20 20:00N 44°11' E 028°24'0 0.0
2017-Oct-20 19:30N 44°11' E 028°24'0 0.0
2017-Oct-20 19:00N 44°11' E 028°24'0 0.0
2017-Oct-20 18:30N 44°11' E 028°24'0 0.0
2017-Oct-20 18:00N 44°11' E 028°24'0 0.0
2017-Oct-20 17:30N 44°11' E 028°24'0 0.0
2017-Oct-20 17:00N 44°11' E 028°24'0 0.0
2017-Oct-20 16:30N 44°11' E 028°24'0 0.0
2017-Oct-20 15:58N 44°11' E 028°24'1 1.7
2017-Oct-20 15:29N 44°11' E 028°24'1 2.6
2017-Oct-20 15:00N 44°13' E 028°23'1 2.8
2017-Oct-20 14:30N 44°14' E 028°22'3 2.6
2017-Oct-20 13:30N 44°15' E 028°19'2 2.8
2017-Oct-20 12:57N 44°15' E 028°17'1 2.7
2017-Oct-20 12:26N 44°15' E 028°15'  
2017-Oct-16 14:37N 44°17' E 028°05'2 3.5
2017-Oct-16 14:00N 44°16' E 028°08'2 3.4
2017-Oct-16 13:30N 44°16' E 028°10'2 3.3
2017-Oct-16 13:00N 44°16' E 028°13'2 3.3
2017-Oct-16 12:30N 44°15' E 028°15'2 3.3
2017-Oct-16 12:00N 44°15' E 028°17'1 2.9
2017-Oct-16 11:30N 44°15' E 028°19'1 2.9
2017-Oct-16 11:00N 44°15' E 028°21'2 3.3
2017-Oct-16 10:30N 44°13' E 028°23'2 3.3
2017-Oct-16 10:00N 44°12' E 028°23'1 2.7
2017-Oct-16 09:30N 44°11' E 028°24'0 0.0
2017-Oct-16 09:00N 44°11' E 028°24'0 0.0
2017-Oct-16 08:30N 44°11' E 028°24'0 0.0
2017-Oct-16 08:00N 44°11' E 028°24'0 0.0
2017-Oct-16 07:30N 44°11' E 028°24'0 0.0
2017-Oct-16 07:00N 44°11' E 028°24'0 0.0
2017-Oct-16 06:30N 44°11' E 028°24'0 0.2
2017-Oct-16 06:00N 44°11' E 028°24'0 0.1
2017-Oct-16 05:30N 44°11' E 028°24'0 0.0
2017-Oct-16 05:00N 44°11' E 028°24'0 0.0
2017-Oct-16 04:30N 44°11' E 028°24'0 0.0
2017-Oct-16 04:00N 44°11' E 028°24'0 0.0
2017-Oct-16 03:30N 44°11' E 028°24'0 0.0
2017-Oct-16 03:00N 44°11' E 028°24'0 0.0
2017-Oct-16 02:30N 44°11' E 028°24'0 0.0
2017-Oct-16 02:00N 44°11' E 028°24'0 0.0
2017-Oct-16 01:30N 44°11' E 028°24'0 0.0
2017-Oct-16 01:00N 44°11' E 028°24'0 0.0
2017-Oct-16 00:30N 44°11' E 028°24'0 0.0
2017-Oct-16 00:00N 44°11' E 028°24'0 0.0
2017-Oct-15 23:30N 44°11' E 028°24'0 0.0
2017-Oct-15 23:00N 44°11' E 028°24'0 0.0
2017-Oct-15 22:30N 44°11' E 028°24'0 0.0
2017-Oct-15 22:00N 44°11' E 028°24'0 0.0
2017-Oct-15 21:30N 44°11' E 028°24'0 0.0
2017-Oct-15 21:00N 44°11' E 028°24'0 0.0
2017-Oct-15 20:30N 44°11' E 028°24'0 0.0
2017-Oct-15 20:00N 44°11' E 028°24'0 0.0
2017-Oct-15 19:30N 44°11' E 028°24'0 0.0
2017-Oct-15 19:00N 44°11' E 028°24'0 0.0
2017-Oct-15 18:30N 44°11' E 028°24'0 0.0
2017-Oct-15 18:00N 44°11' E 028°24'0 0.0
2017-Oct-15 17:30N 44°11' E 028°24'0 0.0
2017-Oct-15 17:00N 44°11' E 028°24'0 0.0
2017-Oct-15 16:30N 44°11' E 028°24'0 0.0
2017-Oct-15 16:00N 44°11' E 028°24'0 0.0
2017-Oct-15 15:30N 44°11' E 028°24'0 0.0
2017-Oct-15 15:00N 44°11' E 028°24'0 0.0
2017-Oct-15 14:00N 44°11' E 028°24'0 0.0
2017-Oct-15 13:30N 44°11' E 028°24'0 0.0
2017-Oct-15 13:00N 44°11' E 028°24'0 0.0
2017-Oct-15 12:30N 44°11' E 028°24'0 0.2
2017-Oct-15 12:00N 44°11' E 028°24'2 2.5
2017-Oct-15 11:21N 44°12' E 028°23'1 2.7
2017-Oct-15 11:00N 44°13' E 028°23'1 2.8
2017-Oct-15 10:30N 44°14' E 028°22'1 2.8
2017-Oct-15 10:00N 44°15' E 028°20'1 2.7
2017-Oct-15 09:30N 44°15' E 028°18'1 2.9
2017-Oct-15 08:59N 44°15' E 028°16'1 2.8
2017-Oct-15 08:30N 44°15' E 028°14'2 2.8
2017-Oct-15 07:57N 44°16' E 028°12'2 2.8
2017-Oct-15 07:23N 44°16' E 028°10'1 2.7
2017-Oct-15 06:56N 44°16' E 028°08'1 2.8
2017-Oct-15 06:27N 44°16' E 028°07'1 2.8
2017-Oct-15 06:00N 44°17' E 028°05'  
2017-Oct-11 00:00N 44°11' E 028°24'0 0.0
2017-Oct-10 23:30N 44°11' E 028°24'0 0.0
2017-Oct-10 23:00N 44°11' E 028°24'0 0.0
2017-Oct-10 22:30N 44°11' E 028°24'0 0.0
2017-Oct-10 22:00N 44°11' E 028°24'0 0.0
2017-Oct-10 21:30N 44°11' E 028°24'  
Track history (hours):
 
Tides and Currents Weather Stations Pressure Air Temp Water Temp Dewpoint Dewpoint Depression Visibility Wind Speed Wind Dir Waves Ship Positions

Dunav 8

Last reported at 2017-Oct-20 21:00 UTC. Time now 2017-Oct-20 21:17 UTC.
Position N 44°11' E 028°24'.

Length 67 m.

MMSI: 264162566.

Date/timePositionNaut miles runAvg speedWind from/ knotsBaromVisibWave heightAir tempDewpointWater temp
2017-Oct-20 21:00N 44°11' E 028°24'0 0.0
2017-Oct-20 20:29N 44°11' E 028°24'0 0.0
2017-Oct-20 20:00N 44°11' E 028°24'0 0.0
2017-Oct-20 19:30N 44°11' E 028°24'0 0.0
2017-Oct-20 19:00N 44°11' E 028°24'0 0.0
2017-Oct-20 18:30N 44°11' E 028°24'0 0.0
2017-Oct-20 18:00N 44°11' E 028°24'0 0.0
2017-Oct-20 17:30N 44°11' E 028°24'0 0.0
2017-Oct-20 17:00N 44°11' E 028°24'0 0.0
2017-Oct-20 16:30N 44°11' E 028°24'0 0.0
2017-Oct-20 15:58N 44°11' E 028°24'1 1.7
2017-Oct-20 15:29N 44°11' E 028°24'1 2.6
2017-Oct-20 15:00N 44°13' E 028°23'1 2.8
2017-Oct-20 14:30N 44°14' E 028°22'3 2.6
2017-Oct-20 13:30N 44°15' E 028°19'2 2.8
2017-Oct-20 12:57N 44°15' E 028°17'1 2.7
2017-Oct-20 12:26N 44°15' E 028°15'  
2017-Oct-16 14:37N 44°17' E 028°05'2 3.5
2017-Oct-16 14:00N 44°16' E 028°08'2 3.4
2017-Oct-16 13:30N 44°16' E 028°10'2 3.3
2017-Oct-16 13:00N 44°16' E 028°13'2 3.3
2017-Oct-16 12:30N 44°15' E 028°15'2 3.3
2017-Oct-16 12:00N 44°15' E 028°17'1 2.9
2017-Oct-16 11:30N 44°15' E 028°19'1 2.9
2017-Oct-16 11:00N 44°15' E 028°21'2 3.3
2017-Oct-16 10:30N 44°13' E 028°23'2 3.3
2017-Oct-16 10:00N 44°12' E 028°23'1 2.7
2017-Oct-16 09:30N 44°11' E 028°24'0 0.0
2017-Oct-16 09:00N 44°11' E 028°24'0 0.0
2017-Oct-16 08:30N 44°11' E 028°24'0 0.0
2017-Oct-16 08:00N 44°11' E 028°24'0 0.0
2017-Oct-16 07:30N 44°11' E 028°24'0 0.0
2017-Oct-16 07:00N 44°11' E 028°24'0 0.0
2017-Oct-16 06:30N 44°11' E 028°24'0 0.2
2017-Oct-16 06:00N 44°11' E 028°24'0 0.1
2017-Oct-16 05:30N 44°11' E 028°24'0 0.0
2017-Oct-16 05:00N 44°11' E 028°24'0 0.0
2017-Oct-16 04:30N 44°11' E 028°24'0 0.0
2017-Oct-16 04:00N 44°11' E 028°24'0 0.0
2017-Oct-16 03:30N 44°11' E 028°24'0 0.0
2017-Oct-16 03:00N 44°11' E 028°24'0 0.0
2017-Oct-16 02:30N 44°11' E 028°24'0 0.0
2017-Oct-16 02:00N 44°11' E 028°24'0 0.0
2017-Oct-16 01:30N 44°11' E 028°24'0 0.0
2017-Oct-16 01:00N 44°11' E 028°24'0 0.0
2017-Oct-16 00:30N 44°11' E 028°24'0 0.0
2017-Oct-16 00:00N 44°11' E 028°24'0 0.0
2017-Oct-15 23:30N 44°11' E 028°24'0 0.0
2017-Oct-15 23:00N 44°11' E 028°24'0 0.0
2017-Oct-15 22:30N 44°11' E 028°24'0 0.0
2017-Oct-15 22:00N 44°11' E 028°24'0 0.0
2017-Oct-15 21:30N 44°11' E 028°24'0 0.0
2017-Oct-15 21:00N 44°11' E 028°24'0 0.0
2017-Oct-15 20:30N 44°11' E 028°24'0 0.0
2017-Oct-15 20:00N 44°11' E 028°24'0 0.0
2017-Oct-15 19:30N 44°11' E 028°24'0 0.0
2017-Oct-15 19:00N 44°11' E 028°24'0 0.0
2017-Oct-15 18:30N 44°11' E 028°24'0 0.0
2017-Oct-15 18:00N 44°11' E 028°24'0 0.0
2017-Oct-15 17:30N 44°11' E 028°24'0 0.0
2017-Oct-15 17:00N 44°11' E 028°24'0 0.0
2017-Oct-15 16:30N 44°11' E 028°24'0 0.0
2017-Oct-15 16:00N 44°11' E 028°24'0 0.0
2017-Oct-15 15:30N 44°11' E 028°24'0 0.0
2017-Oct-15 15:00N 44°11' E 028°24'0 0.0
2017-Oct-15 14:00N 44°11' E 028°24'0 0.0
2017-Oct-15 13:30N 44°11' E 028°24'0 0.0
2017-Oct-15 13:00N 44°11' E 028°24'0 0.0
2017-Oct-15 12:30N 44°11' E 028°24'0 0.2
2017-Oct-15 12:00N 44°11' E 028°24'2 2.5
2017-Oct-15 11:21N 44°12' E 028°23'1 2.7
2017-Oct-15 11:00N 44°13' E 028°23'1 2.8
2017-Oct-15 10:30N 44°14' E 028°22'1 2.8
2017-Oct-15 10:00N 44°15' E 028°20'1 2.7
2017-Oct-15 09:30N 44°15' E 028°18'1 2.9
2017-Oct-15 08:59N 44°15' E 028°16'1 2.8
2017-Oct-15 08:30N 44°15' E 028°14'2 2.8
2017-Oct-15 07:57N 44°16' E 028°12'2 2.8
2017-Oct-15 07:23N 44°16' E 028°10'1 2.7
2017-Oct-15 06:56N 44°16' E 028°08'1 2.8
2017-Oct-15 06:27N 44°16' E 028°07'1 2.8
2017-Oct-15 06:00N 44°17' E 028°05'  
2017-Oct-11 00:00N 44°11' E 028°24'0 0.0
2017-Oct-10 23:30N 44°11' E 028°24'0 0.0
2017-Oct-10 23:00N 44°11' E 028°24'0 0.0
2017-Oct-10 22:30N 44°11' E 028°24'0 0.0
2017-Oct-10 22:00N 44°11' E 028°24'0 0.0
2017-Oct-10 21:30N 44°11' E 028°24'  

Dump ship's entire track history